Doorwerth, Netherlands
Current Conditions -  °F | °C
As of 3:55 AM on Wednesday 22 Oct 2014 (Local Time) from EHDL Reporting Station
Broken Clouds Broken Clouds  
Wind Chill: 40°   Ceiling: 3800
Heat Index: 45°   Visibility: 6mi
Dew Point: 41°   Wind: 8mph
Humidity: 87%   Direction: 270°W
Pressure: 29.85"   Gusts: NA
Location:  51.98°N, 5.8°E
Report Text: EHDL 220155Z AUTO 27007KT 9999 SCT033 BKN038 BKN044 07/05 Q1011 BLU
Loading
Personal Weather Stations






























Interactive Weather Map
Tropical Storm Tracking
New forecast layout! Learn more

10-Day Weather Forecast

Advertisements
Track Severe Weather on mobile